sensor_id;sensor_type;location;lat;lon;timestamp;P1;durP1;ratioP1;P2;durP2;ratioP2
27491;SDS011;14927;51.210;6.838;2022-09-12T00:00:27;25.98;;;18.67;;
27491;SDS011;14927;51.210;6.838;2022-09-12T00:03:14;27.65;;;18.48;;
27491;SDS011;14927;51.210;6.838;2022-09-12T00:05:59;26.73;;;17.27;;
27491;SDS011;14927;51.210;6.838;2022-09-12T00:08:44;29.10;;;18.38;;
27491;SDS011;14927;51.210;6.838;2022-09-12T00:11:29;25.25;;;18.55;;
27491;SDS011;14927;51.210;6.838;2022-09-12T00:14:14;29.40;;;19.02;;
27491;SDS011;14927;51.210;6.838;2022-09-12T00:17:01;26.83;;;17.70;;
27491;SDS011;14927;51.210;6.838;2022-09-12T00:19:46;27.63;;;19.35;;
27491;SDS011;14927;51.210;6.838;2022-09-12T00:22:30;27.95;;;18.90;;
27491;SDS011;14927;51.210;6.838;2022-09-12T00:25:16;27.13;;;18.50;;
27491;SDS011;14927;51.210;6.838;2022-09-12T00:28:01;25.70;;;18.02;;
27491;SDS011;14927;51.210;6.838;2022-09-12T00:30:46;26.25;;;18.00;;
27491;SDS011;14927;51.210;6.838;2022-09-12T00:33:31;25.65;;;18.65;;
27491;SDS011;14927;51.210;6.838;2022-09-12T00:36:18;28.95;;;18.67;;
27491;SDS011;14927;51.210;6.838;2022-09-12T00:39:05;28.48;;;19.35;;
27491;SDS011;14927;51.210;6.838;2022-09-12T00:41:51;26.80;;;17.85;;
27491;SDS011;14927;51.210;6.838;2022-09-12T00:47:22;29.63;;;18.55;;
27491;SDS011;14927;51.210;6.838;2022-09-12T00:50:11;27.38;;;18.20;;
27491;SDS011;14927;51.210;6.838;2022-09-12T00:52:59;26.60;;;18.40;;
27491;SDS011;14927;51.210;6.838;2022-09-12T00:55:49;30.52;;;17.83;;
27491;SDS011;14927;51.210;6.838;2022-09-12T00:58:38;25.40;;;18.05;;
27491;SDS011;14927;51.210;6.838;2022-09-12T01:01:27;26.60;;;18.15;;
27491;SDS011;14927;51.210;6.838;2022-09-12T01:04:12;26.02;;;17.98;;
27491;SDS011;14927;51.210;6.838;2022-09-12T01:06:57;29.15;;;18.50;;
27491;SDS011;14927;51.210;6.838;2022-09-12T01:09:43;30.70;;;17.85;;
27491;SDS011;14927;51.210;6.838;2022-09-12T01:12:28;26.70;;;17.52;;
27491;SDS011;14927;51.210;6.838;2022-09-12T01:15:16;29.45;;;17.00;;
27491;SDS011;14927;51.210;6.838;2022-09-12T01:21:15;29.05;;;18.33;;
27491;SDS011;14927;51.210;6.838;2022-09-12T01:37:14;32.47;;;18.42;;
27491;SDS011;14927;51.210;6.838;2022-09-12T01:40:09;34.22;;;19.88;;
27491;SDS011;14927;51.210;6.838;2022-09-12T01:43:18;36.78;;;20.90;;
27491;SDS011;14927;51.210;6.838;2022-09-12T01:46:15;37.60;;;18.77;;
27491;SDS011;14927;51.210;6.838;2022-09-12T01:49:16;32.10;;;19.35;;
27491;SDS011;14927;51.210;6.838;2022-09-12T01:52:19;35.88;;;19.60;;
27491;SDS011;14927;51.210;6.838;2022-09-12T01:55:16;31.88;;;18.25;;
27491;SDS011;14927;51.210;6.838;2022-09-12T01:59:15;29.33;;;16.95;;
27491;SDS011;14927;51.210;6.838;2022-09-12T02:01:48;30.80;;;17.92;;
27491;SDS011;14927;51.210;6.838;2022-09-12T02:05:16;30.23;;;18.30;;
27491;SDS011;14927;51.210;6.838;2022-09-12T02:08:37;27.45;;;17.85;;
27491;SDS011;14927;51.210;6.838;2022-09-12T02:11:28;29.35;;;17.98;;
27491;SDS011;14927;51.210;6.838;2022-09-12T02:14:21;29.20;;;18.55;;
27491;SDS011;14927;51.210;6.838;2022-09-12T02:17:13;27.35;;;17.40;;
27491;SDS011;14927;51.210;6.838;2022-09-12T02:22:59;29.42;;;17.60;;
27491;SDS011;14927;51.210;6.838;2022-09-12T02:25:46;27.90;;;17.70;;
27491;SDS011;14927;51.210;6.838;2022-09-12T02:28:38;27.80;;;17.65;;
27491;SDS011;14927;51.210;6.838;2022-09-12T02:31:32;30.60;;;17.63;;
27491;SDS011;14927;51.210;6.838;2022-09-12T02:34:21;29.20;;;18.35;;
27491;SDS011;14927;51.210;6.838;2022-09-12T02:40:47;26.30;;;17.15;;
27491;SDS011;14927;51.210;6.838;2022-09-12T02:43:31;25.85;;;17.60;;
27491;SDS011;14927;51.210;6.838;2022-09-12T02:46:25;24.55;;;15.93;;
27491;SDS011;14927;51.210;6.838;2022-09-12T02:49:31;23.25;;;17.02;;
27491;SDS011;14927;51.210;6.838;2022-09-12T02:52:16;25.98;;;17.65;;
27491;SDS011;14927;51.210;6.838;2022-09-12T02:55:02;21.95;;;15.88;;
27491;SDS011;14927;51.210;6.838;2022-09-12T02:57:48;24.65;;;16.67;;
27491;SDS011;14927;51.210;6.838;2022-09-12T03:00:34;24.63;;;16.45;;
27491;SDS011;14927;51.210;6.838;2022-09-12T03:15:27;27.92;;;16.50;;
27491;SDS011;14927;51.210;6.838;2022-09-12T03:28:13;22.98;;;15.73;;
27491;SDS011;14927;51.210;6.838;2022-09-12T03:31:00;23.20;;;15.65;;
27491;SDS011;14927;51.210;6.838;2022-09-12T03:33:59;26.15;;;15.80;;
27491;SDS011;14927;51.210;6.838;2022-09-12T03:36:44;24.63;;;16.08;;
27491;SDS011;14927;51.210;6.838;2022-09-12T03:39:28;22.95;;;14.93;;
27491;SDS011;14927;51.210;6.838;2022-09-12T03:42:13;21.92;;;15.70;;
27491;SDS011;14927;51.210;6.838;2022-09-12T03:44:58;24.27;;;15.07;;
27491;SDS011;14927;51.210;6.838;2022-09-12T03:47:42;24.13;;;15.98;;
27491;SDS011;14927;51.210;6.838;2022-09-12T03:50:27;21.20;;;14.73;;
27491;SDS011;14927;51.210;6.838;2022-09-12T03:53:12;20.35;;;15.30;;
27491;SDS011;14927;51.210;6.838;2022-09-12T03:55:57;26.73;;;15.32;;
27491;SDS011;14927;51.210;6.838;2022-09-12T03:58:41;24.77;;;15.20;;
27491;SDS011;14927;51.210;6.838;2022-09-12T04:01:26;21.30;;;14.95;;
27491;SDS011;14927;51.210;6.838;2022-09-12T04:04:11;20.65;;;14.25;;
27491;SDS011;14927;51.210;6.838;2022-09-12T04:06:55;22.50;;;14.85;;
27491;SDS011;14927;51.210;6.838;2022-09-12T04:09:40;24.63;;;14.38;;
27491;SDS011;14927;51.210;6.838;2022-09-12T04:12:25;26.05;;;14.05;;
27491;SDS011;14927;51.210;6.838;2022-09-12T04:15:10;22.48;;;14.55;;
27491;SDS011;14927;51.210;6.838;2022-09-12T04:17:56;19.92;;;14.00;;
27491;SDS011;14927;51.210;6.838;2022-09-12T04:20:41;25.83;;;14.75;;
27491;SDS011;14927;51.210;6.838;2022-09-12T04:23:26;17.75;;;13.27;;
27491;SDS011;14927;51.210;6.838;2022-09-12T04:26:11;19.90;;;13.23;;
27491;SDS011;14927;51.210;6.838;2022-09-12T04:28:56;21.30;;;13.20;;
27491;SDS011;14927;51.210;6.838;2022-09-12T04:31:42;22.67;;;13.27;;
27491;SDS011;14927;51.210;6.838;2022-09-12T04:34:29;17.90;;;12.98;;
27491;SDS011;14927;51.210;6.838;2022-09-12T04:37:15;21.33;;;13.63;;
27491;SDS011;14927;51.210;6.838;2022-09-12T04:40:00;19.40;;;13.80;;
27491;SDS011;14927;51.210;6.838;2022-09-12T04:42:45;18.52;;;12.93;;
27491;SDS011;14927;51.210;6.838;2022-09-12T04:45:29;18.02;;;12.82;;
27491;SDS011;14927;51.210;6.838;2022-09-12T04:48:14;20.95;;;13.30;;
27491;SDS011;14927;51.210;6.838;2022-09-12T04:51:09;17.58;;;12.52;;
27491;SDS011;14927;51.210;6.838;2022-09-12T04:54:16;16.23;;;11.98;;
27491;SDS011;14927;51.210;6.838;2022-09-12T04:57:02;18.38;;;12.63;;
27491;SDS011;14927;51.210;6.838;2022-09-12T04:59:47;19.30;;;13.35;;
27491;SDS011;14927;51.210;6.838;2022-09-12T05:02:32;18.38;;;12.02;;
27491;SDS011;14927;51.210;6.838;2022-09-12T05:05:17;18.58;;;11.52;;
27491;SDS011;14927;51.210;6.838;2022-09-12T05:08:02;19.77;;;11.88;;
27491;SDS011;14927;51.210;6.838;2022-09-12T05:13:34;17.02;;;11.45;;
27491;SDS011;14927;51.210;6.838;2022-09-12T05:16:20;18.70;;;12.10;;
27491;SDS011;14927;51.210;6.838;2022-09-12T05:19:09;16.20;;;11.80;;
27491;SDS011;14927;51.210;6.838;2022-09-12T05:21:54;18.33;;;12.00;;
27491;SDS011;14927;51.210;6.838;2022-09-12T05:24:39;17.38;;;11.65;;
27491;SDS011;14927;51.210;6.838;2022-09-12T05:27:26;14.80;;;11.32;;
27491;SDS011;14927;51.210;6.838;2022-09-12T05:30:10;19.92;;;10.73;;
27491;SDS011;14927;51.210;6.838;2022-09-12T05:32:55;19.60;;;11.95;;
27491;SDS011;14927;51.210;6.838;2022-09-12T05:35:40;16.02;;;11.95;;
27491;SDS011;14927;51.210;6.838;2022-09-12T05:38:25;17.00;;;12.23;;
27491;SDS011;14927;51.210;6.838;2022-09-12T05:41:12;15.73;;;11.18;;
27491;SDS011;14927;51.210;6.838;2022-09-12T05:44:03;16.02;;;11.50;;
27491;SDS011;14927;51.210;6.838;2022-09-12T05:46:49;16.38;;;11.18;;
27491;SDS011;14927;51.210;6.838;2022-09-12T05:49:36;16.95;;;12.05;;
27491;SDS011;14927;51.210;6.838;2022-09-12T05:52:21;17.65;;;11.63;;
27491;SDS011;14927;51.210;6.838;2022-09-12T05:55:06;16.17;;;11.55;;
27491;SDS011;14927;51.210;6.838;2022-09-12T05:57:51;16.88;;;11.55;;
27491;SDS011;14927;51.210;6.838;2022-09-12T06:00:36;18.52;;;12.02;;
27491;SDS011;14927;51.210;6.838;2022-09-12T06:03:22;22.38;;;12.77;;
27491;SDS011;14927;51.210;6.838;2022-09-12T06:06:07;18.60;;;11.38;;
27491;SDS011;14927;51.210;6.838;2022-09-12T06:08:52;20.35;;;11.95;;
27491;SDS011;14927;51.210;6.838;2022-09-12T06:11:41;17.63;;;11.50;;
27491;SDS011;14927;51.210;6.838;2022-09-12T06:14:27;18.02;;;10.90;;
27491;SDS011;14927;51.210;6.838;2022-09-12T06:17:12;18.30;;;10.82;;
27491;SDS011;14927;51.210;6.838;2022-09-12T06:19:56;16.38;;;11.02;;
27491;SDS011;14927;51.210;6.838;2022-09-12T06:22:41;16.27;;;11.25;;
27491;SDS011;14927;51.210;6.838;2022-09-12T06:25:26;13.85;;;10.57;;
27491;SDS011;14927;51.210;6.838;2022-09-12T06:28:10;17.40;;;11.35;;
27491;SDS011;14927;51.210;6.838;2022-09-12T06:31:06;17.15;;;10.32;;
27491;SDS011;14927;51.210;6.838;2022-09-12T06:34:04;15.52;;;10.40;;
27491;SDS011;14927;51.210;6.838;2022-09-12T06:36:52;15.82;;;10.20;;
27491;SDS011;14927;51.210;6.838;2022-09-12T06:39:37;14.07;;;9.52;;
27491;SDS011;14927;51.210;6.838;2022-09-12T06:42:22;13.15;;;9.60;;
27491;SDS011;14927;51.210;6.838;2022-09-12T06:45:06;13.65;;;10.02;;
27491;SDS011;14927;51.210;6.838;2022-09-12T06:47:51;18.17;;;10.75;;
27491;SDS011;14927;51.210;6.838;2022-09-12T06:50:38;16.85;;;10.45;;
27491;SDS011;14927;51.210;6.838;2022-09-12T06:53:24;22.98;;;9.90;;
27491;SDS011;14927;51.210;6.838;2022-09-12T06:56:21;14.93;;;10.68;;
27491;SDS011;14927;51.210;6.838;2022-09-12T06:59:09;14.05;;;10.55;;
27491;SDS011;14927;51.210;6.838;2022-09-12T07:01:53;15.20;;;10.00;;
27491;SDS011;14927;51.210;6.838;2022-09-12T07:04:39;16.55;;;10.18;;
27491;SDS011;14927;51.210;6.838;2022-09-12T07:07:25;15.63;;;10.63;;
27491;SDS011;14927;51.210;6.838;2022-09-12T07:11:07;14.75;;;9.35;;
27491;SDS011;14927;51.210;6.838;2022-09-12T07:14:10;16.27;;;10.15;;
27491;SDS011;14927;51.210;6.838;2022-09-12T07:17:19;15.48;;;10.05;;
27491;SDS011;14927;51.210;6.838;2022-09-12T07:21:10;15.07;;;10.65;;
27491;SDS011;14927;51.210;6.838;2022-09-12T07:23:57;16.23;;;10.48;;
27491;SDS011;14927;51.210;6.838;2022-09-12T07:26:42;13.77;;;10.57;;
27491;SDS011;14927;51.210;6.838;2022-09-12T07:29:26;17.75;;;10.50;;
27491;SDS011;14927;51.210;6.838;2022-09-12T07:32:11;13.00;;;9.40;;
27491;SDS011;14927;51.210;6.838;2022-09-12T07:34:57;14.68;;;10.23;;
27491;SDS011;14927;51.210;6.838;2022-09-12T07:37:42;12.90;;;10.13;;
27491;SDS011;14927;51.210;6.838;2022-09-12T07:40:27;14.77;;;9.85;;
27491;SDS011;14927;51.210;6.838;2022-09-12T07:43:12;13.52;;;9.40;;
27491;SDS011;14927;51.210;6.838;2022-09-12T07:45:57;12.77;;;9.63;;
27491;SDS011;14927;51.210;6.838;2022-09-12T07:48:43;14.52;;;9.88;;
27491;SDS011;14927;51.210;6.838;2022-09-12T07:51:32;14.98;;;9.98;;
27491;SDS011;14927;51.210;6.838;2022-09-12T07:54:17;14.15;;;8.95;;
27491;SDS011;14927;51.210;6.838;2022-09-12T07:57:02;14.52;;;9.88;;
27491;SDS011;14927;51.210;6.838;2022-09-12T07:59:47;23.88;;;9.98;;
27491;SDS011;14927;51.210;6.838;2022-09-12T08:02:32;15.25;;;9.85;;
27491;SDS011;14927;51.210;6.838;2022-09-12T08:05:17;15.05;;;9.85;;
27491;SDS011;14927;51.210;6.838;2022-09-12T08:08:03;16.80;;;10.13;;
27491;SDS011;14927;51.210;6.838;2022-09-12T08:10:48;22.25;;;11.00;;
27491;SDS011;14927;51.210;6.838;2022-09-12T08:13:33;14.70;;;10.95;;
27491;SDS011;14927;51.210;6.838;2022-09-12T08:16:25;18.48;;;9.98;;
27491;SDS011;14927;51.210;6.838;2022-09-12T08:19:16;14.77;;;10.10;;
27491;SDS011;14927;51.210;6.838;2022-09-12T08:22:02;17.25;;;11.45;;
27491;SDS011;14927;51.210;6.838;2022-09-12T08:24:48;15.60;;;9.93;;
27491;SDS011;14927;51.210;6.838;2022-09-12T08:27:33;16.85;;;9.95;;
27491;SDS011;14927;51.210;6.838;2022-09-12T08:30:18;13.77;;;10.43;;
27491;SDS011;14927;51.210;6.838;2022-09-12T08:33:03;11.48;;;9.40;;
27491;SDS011;14927;51.210;6.838;2022-09-12T08:36:17;12.07;;;9.02;;
27491;SDS011;14927;51.210;6.838;2022-09-12T08:39:12;13.55;;;9.23;;
27491;SDS011;14927;51.210;6.838;2022-09-12T08:42:01;14.80;;;9.15;;
27491;SDS011;14927;51.210;6.838;2022-09-12T08:44:51;12.52;;;9.13;;
27491;SDS011;14927;51.210;6.838;2022-09-12T08:47:51;11.68;;;8.88;;
27491;SDS011;14927;51.210;6.838;2022-09-12T08:50:38;14.70;;;8.90;;
27491;SDS011;14927;51.210;6.838;2022-09-12T08:53:27;17.27;;;9.10;;
27491;SDS011;14927;51.210;6.838;2022-09-12T08:56:17;15.30;;;9.20;;
27491;SDS011;14927;51.210;6.838;2022-09-12T08:59:02;10.52;;;8.07;;
27491;SDS011;14927;51.210;6.838;2022-09-12T09:01:46;12.63;;;8.90;;
27491;SDS011;14927;51.210;6.838;2022-09-12T09:08:19;9.77;;;7.25;;
27491;SDS011;14927;51.210;6.838;2022-09-12T09:17:37;17.17;;;6.88;;
27491;SDS011;14927;51.210;6.838;2022-09-12T09:20:46;14.48;;;7.30;;
27491;SDS011;14927;51.210;6.838;2022-09-12T09:23:38;9.50;;;7.00;;
27491;SDS011;14927;51.210;6.838;2022-09-12T09:29:35;13.48;;;6.78;;
27491;SDS011;14927;51.210;6.838;2022-09-12T09:32:32;10.02;;;6.32;;
27491;SDS011;14927;51.210;6.838;2022-09-12T09:35:25;8.95;;;6.10;;
27491;SDS011;14927;51.210;6.838;2022-09-12T09:45:12;12.65;;;5.55;;
27491;SDS011;14927;51.210;6.838;2022-09-12T09:48:12;7.63;;;5.65;;
27491;SDS011;14927;51.210;6.838;2022-09-12T09:51:05;6.65;;;5.00;;
27491;SDS011;14927;51.210;6.838;2022-09-12T10:00:34;8.80;;;5.28;;
27491;SDS011;14927;51.210;6.838;2022-09-12T10:03:23;7.45;;;5.07;;
27491;SDS011;14927;51.210;6.838;2022-09-12T10:12:21;6.97;;;5.03;;
27491;SDS011;14927;51.210;6.838;2022-09-12T10:15:32;7.55;;;4.88;;
27491;SDS011;14927;51.210;6.838;2022-09-12T10:18:31;7.32;;;4.65;;
27491;SDS011;14927;51.210;6.838;2022-09-12T10:24:20;5.90;;;4.35;;
27491;SDS011;14927;51.210;6.838;2022-09-12T10:33:04;3.50;;;2.67;;
27491;SDS011;14927;51.210;6.838;2022-09-12T10:35:52;2.63;;;2.30;;
27491;SDS011;14927;51.210;6.838;2022-09-12T10:38:38;3.85;;;2.60;;
27491;SDS011;14927;51.210;6.838;2022-09-12T10:41:38;3.50;;;2.58;;
27491;SDS011;14927;51.210;6.838;2022-09-12T10:44:33;3.05;;;2.40;;
27491;SDS011;14927;51.210;6.838;2022-09-12T10:47:19;4.15;;;2.50;;
27491;SDS011;14927;51.210;6.838;2022-09-12T10:50:21;3.10;;;2.42;;
27491;SDS011;14927;51.210;6.838;2022-09-12T10:53:42;6.97;;;2.40;;
27491;SDS011;14927;51.210;6.838;2022-09-12T10:56:30;4.65;;;2.10;;
27491;SDS011;14927;51.210;6.838;2022-09-12T11:02:56;2.17;;;1.70;;
27491;SDS011;14927;51.210;6.838;2022-09-12T11:06:38;9.35;;;1.67;;
27491;SDS011;14927;51.210;6.838;2022-09-12T11:09:38;1.75;;;1.45;;
27491;SDS011;14927;51.210;6.838;2022-09-12T11:41:19;1.65;;;1.17;;
27491;SDS011;14927;51.210;6.838;2022-09-12T11:47:12;5.72;;;1.50;;
27491;SDS011;14927;51.210;6.838;2022-09-12T11:49:57;1.38;;;1.27;;
27491;SDS011;14927;51.210;6.838;2022-09-12T11:52:46;1.63;;;1.48;;
27491;SDS011;14927;51.210;6.838;2022-09-12T11:55:36;1.45;;;1.35;;
27491;SDS011;14927;51.210;6.838;2022-09-12T11:59:03;1.52;;;1.40;;
27491;SDS011;14927;51.210;6.838;2022-09-12T12:02:00;3.28;;;1.60;;
27491;SDS011;14927;51.210;6.838;2022-09-12T12:07:59;2.90;;;1.40;;
27491;SDS011;14927;51.210;6.838;2022-09-12T12:10:55;1.52;;;1.42;;
27491;SDS011;14927;51.210;6.838;2022-09-12T12:16:58;3.25;;;1.52;;
27491;SDS011;14927;51.210;6.838;2022-09-12T12:24:03;1.70;;;1.60;;
27491;SDS011;14927;51.210;6.838;2022-09-12T12:31:07;1.75;;;1.20;;
27491;SDS011;14927;51.210;6.838;2022-09-12T12:33:54;2.08;;;1.48;;
27491;SDS011;14927;51.210;6.838;2022-09-12T12:36:46;1.75;;;1.40;;
27491;SDS011;14927;51.210;6.838;2022-09-12T12:39:57;1.15;;;1.00;;
27491;SDS011;14927;51.210;6.838;2022-09-12T12:48:21;1.90;;;0.90;;
27491;SDS011;14927;51.210;6.838;2022-09-12T12:57:32;4.72;;;0.80;;
27491;SDS011;14927;51.210;6.838;2022-09-12T13:00:35;1.92;;;1.15;;
27491;SDS011;14927;51.210;6.838;2022-09-12T13:03:27;1.48;;;0.80;;
27491;SDS011;14927;51.210;6.838;2022-09-12T13:09:30;2.35;;;1.10;;
27491;SDS011;14927;51.210;6.838;2022-09-12T13:12:29;1.58;;;0.90;;
27491;SDS011;14927;51.210;6.838;2022-09-12T13:18:37;1.63;;;0.88;;
27491;SDS011;14927;51.210;6.838;2022-09-12T13:21:54;0.93;;;0.93;;
27491;SDS011;14927;51.210;6.838;2022-09-12T13:24:43;1.42;;;0.90;;
27491;SDS011;14927;51.210;6.838;2022-09-12T13:27:31;1.40;;;1.17;;
27491;SDS011;14927;51.210;6.838;2022-09-12T13:48:00;0.90;;;0.80;;
27491;SDS011;14927;51.210;6.838;2022-09-12T13:53:42;1.55;;;0.70;;
27491;SDS011;14927;51.210;6.838;2022-09-12T13:56:29;0.73;;;0.73;;
27491;SDS011;14927;51.210;6.838;2022-09-12T13:59:16;1.00;;;0.80;;
27491;SDS011;14927;51.210;6.838;2022-09-12T14:02:01;4.28;;;0.75;;
27491;SDS011;14927;51.210;6.838;2022-09-12T14:04:58;1.25;;;0.82;;
27491;SDS011;14927;51.210;6.838;2022-09-12T14:07:57;2.25;;;1.00;;
27491;SDS011;14927;51.210;6.838;2022-09-12T14:10:47;2.40;;;0.90;;
27491;SDS011;14927;51.210;6.838;2022-09-12T14:13:32;3.25;;;1.00;;
27491;SDS011;14927;51.210;6.838;2022-09-12T14:16:18;1.02;;;0.80;;
27491;SDS011;14927;51.210;6.838;2022-09-12T14:19:04;1.83;;;1.00;;
27491;SDS011;14927;51.210;6.838;2022-09-12T14:21:50;3.38;;;0.85;;
27491;SDS011;14927;51.210;6.838;2022-09-12T14:24:40;1.15;;;1.08;;
27491;SDS011;14927;51.210;6.838;2022-09-12T14:27:26;1.30;;;1.20;;
27491;SDS011;14927;51.210;6.838;2022-09-12T14:30:23;3.22;;;1.55;;
27491;SDS011;14927;51.210;6.838;2022-09-12T14:33:15;1.58;;;1.10;;
27491;SDS011;14927;51.210;6.838;2022-09-12T14:36:07;1.35;;;1.20;;
27491;SDS011;14927;51.210;6.838;2022-09-12T14:39:05;1.95;;;1.00;;
27491;SDS011;14927;51.210;6.838;2022-09-12T14:42:05;1.08;;;0.98;;
27491;SDS011;14927;51.210;6.838;2022-09-12T14:45:02;1.00;;;1.00;;
27491;SDS011;14927;51.210;6.838;2022-09-12T14:47:59;3.22;;;1.23;;
27491;SDS011;14927;51.210;6.838;2022-09-12T14:50:47;1.10;;;1.00;;
27491;SDS011;14927;51.210;6.838;2022-09-12T14:53:34;1.93;;;0.97;;
27491;SDS011;14927;51.210;6.838;2022-09-12T14:56:21;2.25;;;1.13;;
27491;SDS011;14927;51.210;6.838;2022-09-12T15:02:19;1.85;;;1.10;;
27491;SDS011;14927;51.210;6.838;2022-09-12T15:08:01;2.38;;;1.58;;
27491;SDS011;14927;51.210;6.838;2022-09-12T15:10:45;1.45;;;1.25;;
27491;SDS011;14927;51.210;6.838;2022-09-12T15:13:37;2.90;;;1.40;;
27491;SDS011;14927;51.210;6.838;2022-09-12T15:16:23;1.45;;;1.25;;
27491;SDS011;14927;51.210;6.838;2022-09-12T15:19:08;1.58;;;1.38;;
27491;SDS011;14927;51.210;6.838;2022-09-12T15:21:53;5.07;;;1.33;;
27491;SDS011;14927;51.210;6.838;2022-09-12T15:24:37;3.88;;;1.15;;
27491;SDS011;14927;51.210;6.838;2022-09-12T15:27:22;2.80;;;1.55;;
27491;SDS011;14927;51.210;6.838;2022-09-12T15:30:09;2.38;;;1.33;;
27491;SDS011;14927;51.210;6.838;2022-09-12T15:32:55;2.92;;;1.92;;
27491;SDS011;14927;51.210;6.838;2022-09-12T15:35:42;2.15;;;1.75;;
27491;SDS011;14927;51.210;6.838;2022-09-12T15:38:27;3.17;;;1.48;;
27491;SDS011;14927;51.210;6.838;2022-09-12T15:41:45;1.80;;;1.38;;
27491;SDS011;14927;51.210;6.838;2022-09-12T15:44:23;6.82;;;1.80;;
27491;SDS011;14927;51.210;6.838;2022-09-12T15:47:10;4.43;;;1.60;;
27491;SDS011;14927;51.210;6.838;2022-09-12T15:49:57;4.20;;;1.48;;
27491;SDS011;14927;51.210;6.838;2022-09-12T15:52:42;2.80;;;1.85;;
27491;SDS011;14927;51.210;6.838;2022-09-12T15:55:28;2.22;;;1.50;;
27491;SDS011;14927;51.210;6.838;2022-09-12T15:58:14;3.22;;;1.40;;
27491;SDS011;14927;51.210;6.838;2022-09-12T16:00:59;4.38;;;1.65;;
27491;SDS011;14927;51.210;6.838;2022-09-12T16:03:45;1.95;;;1.75;;
27491;SDS011;14927;51.210;6.838;2022-09-12T16:06:30;1.75;;;1.27;;
27491;SDS011;14927;51.210;6.838;2022-09-12T16:09:16;4.35;;;1.75;;
27491;SDS011;14927;51.210;6.838;2022-09-12T16:12:01;2.65;;;1.80;;
27491;SDS011;14927;51.210;6.838;2022-09-12T16:14:46;2.08;;;1.80;;
27491;SDS011;14927;51.210;6.838;2022-09-12T16:17:31;2.53;;;1.80;;
27491;SDS011;14927;51.210;6.838;2022-09-12T16:20:16;2.22;;;1.40;;
27491;SDS011;14927;51.210;6.838;2022-09-12T16:23:02;1.70;;;1.48;;
27491;SDS011;14927;51.210;6.838;2022-09-12T16:26:05;2.80;;;1.55;;
27491;SDS011;14927;51.210;6.838;2022-09-12T16:28:56;1.70;;;1.58;;
27491;SDS011;14927;51.210;6.838;2022-09-12T16:31:42;1.90;;;1.80;;
27491;SDS011;14927;51.210;6.838;2022-09-12T16:34:26;2.20;;;1.48;;
27491;SDS011;14927;51.210;6.838;2022-09-12T16:37:11;2.55;;;1.77;;
27491;SDS011;14927;51.210;6.838;2022-09-12T16:39:55;2.50;;;1.60;;
27491;SDS011;14927;51.210;6.838;2022-09-12T16:42:40;3.20;;;2.20;;
27491;SDS011;14927;51.210;6.838;2022-09-12T16:45:25;3.75;;;2.40;;
27491;SDS011;14927;51.210;6.838;2022-09-12T16:48:10;2.38;;;1.50;;
27491;SDS011;14927;51.210;6.838;2022-09-12T16:50:55;1.70;;;1.17;;
27491;SDS011;14927;51.210;6.838;2022-09-12T16:53:47;2.25;;;1.73;;
27491;SDS011;14927;51.210;6.838;2022-09-12T16:56:32;1.30;;;1.20;;
27491;SDS011;14927;51.210;6.838;2022-09-12T16:59:17;2.20;;;1.58;;
27491;SDS011;14927;51.210;6.838;2022-09-12T17:02:01;1.75;;;1.40;;
27491;SDS011;14927;51.210;6.838;2022-09-12T17:04:46;3.17;;;1.80;;
27491;SDS011;14927;51.210;6.838;2022-09-12T17:07:31;3.28;;;1.73;;
27491;SDS011;14927;51.210;6.838;2022-09-12T17:10:17;2.92;;;1.48;;
27491;SDS011;14927;51.210;6.838;2022-09-12T17:13:01;1.80;;;1.30;;
27491;SDS011;14927;51.210;6.838;2022-09-12T17:15:46;1.33;;;1.23;;
27491;SDS011;14927;51.210;6.838;2022-09-12T17:18:30;3.13;;;1.75;;
27491;SDS011;14927;51.210;6.838;2022-09-12T17:21:15;3.65;;;2.45;;
27491;SDS011;14927;51.210;6.838;2022-09-12T17:24:01;2.83;;;2.38;;
27491;SDS011;14927;51.210;6.838;2022-09-12T17:26:46;2.63;;;2.22;;
27491;SDS011;14927;51.210;6.838;2022-09-12T17:29:32;4.45;;;2.25;;
27491;SDS011;14927;51.210;6.838;2022-09-12T17:32:18;5.20;;;1.98;;
27491;SDS011;14927;51.210;6.838;2022-09-12T17:35:03;3.58;;;2.28;;
27491;SDS011;14927;51.210;6.838;2022-09-12T17:37:50;4.10;;;2.08;;
27491;SDS011;14927;51.210;6.838;2022-09-12T17:40:34;4.55;;;1.90;;
27491;SDS011;14927;51.210;6.838;2022-09-12T17:43:19;7.72;;;2.80;;
27491;SDS011;14927;51.210;6.838;2022-09-12T17:46:04;2.35;;;1.90;;
27491;SDS011;14927;51.210;6.838;2022-09-12T17:48:52;6.32;;;2.42;;
27491;SDS011;14927;51.210;6.838;2022-09-12T17:51:47;3.95;;;2.30;;
27491;SDS011;14927;51.210;6.838;2022-09-12T17:54:32;5.15;;;2.97;;
27491;SDS011;14927;51.210;6.838;2022-09-12T17:57:16;3.55;;;3.05;;
27491;SDS011;14927;51.210;6.838;2022-09-12T18:00:01;4.72;;;3.00;;
27491;SDS011;14927;51.210;6.838;2022-09-12T18:02:46;8.27;;;4.55;;
27491;SDS011;14927;51.210;6.838;2022-09-12T18:05:33;5.57;;;3.20;;
27491;SDS011;14927;51.210;6.838;2022-09-12T18:08:18;5.63;;;3.30;;
27491;SDS011;14927;51.210;6.838;2022-09-12T18:11:07;7.07;;;3.08;;
27491;SDS011;14927;51.210;6.838;2022-09-12T18:13:51;13.82;;;4.03;;
27491;SDS011;14927;51.210;6.838;2022-09-12T18:16:36;4.78;;;3.53;;
27491;SDS011;14927;51.210;6.838;2022-09-12T18:19:21;5.75;;;3.20;;
27491;SDS011;14927;51.210;6.838;2022-09-12T18:22:06;3.60;;;2.88;;
27491;SDS011;14927;51.210;6.838;2022-09-12T18:24:52;5.72;;;2.33;;
27491;SDS011;14927;51.210;6.838;2022-09-12T18:27:36;2.20;;;2.00;;
27491;SDS011;14927;51.210;6.838;2022-09-12T18:30:22;6.35;;;2.92;;
27491;SDS011;14927;51.210;6.838;2022-09-12T18:33:07;3.92;;;2.58;;
27491;SDS011;14927;51.210;6.838;2022-09-12T18:35:51;5.55;;;2.30;;
27491;SDS011;14927;51.210;6.838;2022-09-12T18:38:36;3.88;;;2.47;;
27491;SDS011;14927;51.210;6.838;2022-09-12T18:41:22;5.97;;;2.45;;
27491;SDS011;14927;51.210;6.838;2022-09-12T18:44:11;4.32;;;3.10;;
27491;SDS011;14927;51.210;6.838;2022-09-12T18:46:55;6.25;;;3.10;;
27491;SDS011;14927;51.210;6.838;2022-09-12T18:49:40;4.43;;;2.90;;
27491;SDS011;14927;51.210;6.838;2022-09-12T18:52:25;3.28;;;2.72;;
27491;SDS011;14927;51.210;6.838;2022-09-12T18:55:11;5.85;;;2.85;;
27491;SDS011;14927;51.210;6.838;2022-09-12T18:57:56;3.42;;;2.80;;
27491;SDS011;14927;51.210;6.838;2022-09-12T19:00:40;3.13;;;2.80;;
27491;SDS011;14927;51.210;6.838;2022-09-12T19:03:27;3.22;;;2.30;;
27491;SDS011;14927;51.210;6.838;2022-09-12T19:06:13;3.03;;;2.67;;
27491;SDS011;14927;51.210;6.838;2022-09-12T19:09:11;4.25;;;2.35;;
27491;SDS011;14927;51.210;6.838;2022-09-12T19:12:05;4.22;;;3.72;;
27491;SDS011;14927;51.210;6.838;2022-09-12T19:14:50;7.30;;;5.57;;
27491;SDS011;14927;51.210;6.838;2022-09-12T19:17:35;12.73;;;8.10;;
27491;SDS011;14927;51.210;6.838;2022-09-12T19:20:19;16.67;;;9.13;;
27491;SDS011;14927;51.210;6.838;2022-09-12T19:23:04;10.80;;;7.68;;
27491;SDS011;14927;51.210;6.838;2022-09-12T19:25:56;9.23;;;5.90;;
27491;SDS011;14927;51.210;6.838;2022-09-12T19:28:50;7.68;;;4.57;;
27491;SDS011;14927;51.210;6.838;2022-09-12T19:31:37;6.55;;;3.83;;
27491;SDS011;14927;51.210;6.838;2022-09-12T19:34:21;5.78;;;4.10;;
27491;SDS011;14927;51.210;6.838;2022-09-12T19:37:06;5.25;;;3.10;;
27491;SDS011;14927;51.210;6.838;2022-09-12T19:39:53;5.50;;;3.10;;
27491;SDS011;14927;51.210;6.838;2022-09-12T19:42:38;3.25;;;2.95;;
27491;SDS011;14927;51.210;6.838;2022-09-12T19:45:22;6.32;;;3.58;;
27491;SDS011;14927;51.210;6.838;2022-09-12T19:48:07;5.68;;;3.00;;
27491;SDS011;14927;51.210;6.838;2022-09-12T19:50:52;5.72;;;2.80;;
27491;SDS011;14927;51.210;6.838;2022-09-12T19:53:47;4.40;;;2.40;;